COR weather

Ingeniero Ambrosio Taravella Airport
Cordoba, Córdoba Province, Argentina

Public forecast

Using degrees Celsius for public forecast. Weather courtesy of forecast.io.

Current aviation weather report (METAR) for Ingeniero Ambrosio Taravella Airport

Retrieved 2020/07/04 01:00 UTC (8 minutes ago):

SACO 040100Z 01007KT CAVOK 05/01 Q1006 NOSIG

Aviation forecast (TAF) for Ingeniero Ambrosio Taravella Airport

Retrieved 2020-07-04 00:00 UTC (1 hour ago):

TAF SACO 032300Z 0400/0424 34010KT CAVOK TX17/0418Z TN02/0410Z BECMG 0403/0405 23005KT BECMG 0413/0415 18015G25KT